ADDS METAR Data INFO
IDs: Format: Raw Decoded Include TAF

Data at: 1212 UTC 24 Mar 2017

METAR for:LFQA (Reims/Prunay Aprt, --, FR)
Text:LFQA 241200Z AUTO 08012KT 9000 BKN022 OVC027 11/07 Q1024
Temperature: 11.0°C ( 52°F)
Dewpoint: 7.0°C ( 45°F) [RH = 76%]
Pressure (altimeter):30.24 inches Hg (1024.0 mb)
Winds:from the E (80 degrees) at 14 MPH (12 knots; 6.2 m/s)
Visibility: 6 sm ( 9 km)
Ceiling:2200 feet AGL
Clouds: broken clouds at 2200 feet AGL, overcast cloud deck at 2700 feet AGL

TAF for:LFQA (Reims/Prunay Aprt, --, FR)
Text:No data found


Page loaded:  12:12 UTC  |   05:12 AM Pacific  |   06:12 AM Mountain  |   07:12 AM Central  |   08:12 AM Eastern

 

ADVISORIES

FORECASTS

FORECASTS

OBSERVATIONS

USER TOOLS

ABOUT US